createdAt,value
2023-01-27T00:00:37.098Z,16.55
2023-01-27T00:03:40.100Z,12.65
2023-01-27T00:06:42.875Z,10.45
2023-01-27T00:09:45.790Z,15.02
2023-01-27T00:13:07.212Z,20.10
2023-01-27T00:16:10.185Z,9.45
2023-01-27T00:19:12.889Z,10.38
2023-01-27T00:22:34.518Z,8.32
2023-01-27T00:25:37.054Z,15.00
2023-01-27T00:28:41.320Z,12.80
2023-01-27T00:32:02.238Z,9.05
2023-01-27T00:35:05.684Z,13.25
2023-01-27T00:38:08.319Z,11.95
2023-01-27T00:41:20.022Z,13.80
2023-01-27T00:44:23.934Z,13.02
2023-01-27T00:47:26.766Z,14.93
2023-01-27T00:50:29.925Z,13.43
2023-01-27T00:53:33.281Z,12.32
2023-01-27T00:56:36.666Z,13.50
2023-01-27T00:59:39.588Z,12.68
2023-01-27T01:02:42.292Z,11.90
2023-01-27T01:05:45.235Z,9.32
2023-01-27T01:08:48.693Z,12.60
2023-01-27T01:11:51.916Z,9.90
2023-01-27T01:14:54.431Z,13.10
2023-01-27T01:17:57.620Z,16.45
2023-01-27T01:21:00.697Z,15.18
2023-01-27T01:24:04.035Z,13.73
2023-01-27T01:27:06.512Z,11.20
2023-01-27T01:30:10.524Z,11.85
2023-01-27T01:33:16.181Z,11.65
2023-01-27T01:36:21.382Z,11.20
2023-01-27T01:39:24.031Z,12.60
2023-01-27T01:42:26.859Z,12.05
2023-01-27T01:45:32.140Z,13.02
2023-01-27T01:48:41.036Z,14.30
2023-01-27T01:51:49.082Z,11.05
2023-01-27T01:57:56.667Z,11.57
2023-01-27T02:00:59.671Z,10.20
2023-01-27T02:04:06.986Z,11.90
2023-01-27T02:07:21.033Z,13.32
2023-01-27T02:10:27.203Z,12.82
2023-01-27T02:13:30.059Z,17.12
2023-01-27T02:16:33.232Z,15.07
2023-01-27T02:19:48.262Z,12.60
2023-01-27T02:23:07.967Z,8.98
2023-01-27T02:26:29.893Z,9.38
2023-01-27T02:29:32.517Z,15.23
2023-01-27T02:32:35.671Z,16.67
2023-01-27T02:35:44.251Z,9.52
2023-01-27T02:38:52.555Z,15.65
2023-01-27T02:41:57.971Z,12.27
2023-01-27T02:45:01.506Z,11.77
2023-01-27T02:48:04.880Z,8.77
2023-01-27T02:51:07.924Z,14.32
2023-01-27T02:54:10.590Z,8.45
2023-01-27T02:57:13.448Z,9.70
2023-01-27T03:00:18.458Z,10.40
2023-01-27T03:03:21.565Z,8.75
2023-01-27T03:06:24.703Z,8.75
2023-01-27T03:09:27.872Z,13.07
2023-01-27T03:12:30.437Z,7.00
2023-01-27T03:15:51.734Z,10.30
2023-01-27T03:18:58.207Z,9.75
2023-01-27T03:22:03.247Z,4.75
2023-01-27T03:25:07.400Z,10.40
2023-01-27T03:28:12.035Z,9.38
2023-01-27T03:31:19.760Z,6.10
2023-01-27T03:34:24.384Z,6.03
2023-01-27T03:37:46.738Z,6.85
2023-01-27T03:41:08.560Z,7.93
2023-01-27T03:44:30.005Z,5.45
2023-01-27T03:47:32.801Z,5.70
2023-01-27T03:50:38.228Z,11.70
2023-01-27T03:53:41.306Z,12.70
2023-01-27T03:56:44.017Z,5.95
2023-01-27T03:59:50.921Z,6.85
2023-01-27T04:03:12.366Z,6.87
2023-01-27T04:06:36.744Z,5.35
2023-01-27T04:09:39.375Z,6.85
2023-01-27T04:12:42.424Z,6.32
2023-01-27T04:15:44.956Z,6.07
2023-01-27T04:18:49.719Z,5.18
2023-01-27T04:21:53.546Z,9.93
2023-01-27T04:24:56.374Z,8.93
2023-01-27T04:27:58.914Z,5.75
2023-01-27T04:31:02.015Z,5.32
2023-01-27T04:34:04.706Z,6.75
2023-01-27T04:37:09.084Z,6.72
2023-01-27T04:40:12.341Z,5.80
2023-01-27T04:43:15.260Z,5.70
2023-01-27T04:46:17.785Z,7.37
2023-01-27T04:49:20.748Z,7.75
2023-01-27T04:52:23.383Z,8.57
2023-01-27T04:55:26.525Z,6.40
2023-01-27T04:58:29.247Z,6.05
2023-01-27T05:01:32.703Z,8.15
2023-01-27T05:04:35.343Z,4.25
2023-01-27T05:07:39.009Z,6.80
2023-01-27T05:10:45.189Z,6.87
2023-01-27T05:13:48.569Z,6.20
2023-01-27T05:16:51.663Z,7.00
2023-01-27T05:19:54.731Z,11.63
2023-01-27T05:23:17.804Z,5.35
2023-01-27T05:26:26.092Z,6.32
2023-01-27T05:29:28.824Z,5.35
2023-01-27T05:32:31.757Z,5.10
2023-01-27T05:35:35.688Z,8.20
2023-01-27T05:38:38.805Z,8.38
2023-01-27T05:41:41.744Z,5.50
2023-01-27T05:44:44.584Z,7.60
2023-01-27T05:47:51.499Z,5.87
2023-01-27T05:50:55.710Z,4.85
2023-01-27T05:53:58.463Z,7.50
2023-01-27T05:57:01.331Z,6.68
2023-01-27T06:00:05.126Z,4.32
2023-01-27T06:03:11.630Z,10.15
2023-01-27T06:06:16.418Z,7.50
2023-01-27T06:09:19.025Z,5.35
2023-01-27T06:12:21.925Z,5.22
2023-01-27T06:15:24.658Z,4.60
2023-01-27T06:18:30.370Z,7.75
2023-01-27T06:21:33.011Z,6.03
2023-01-27T06:24:36.011Z,4.72
2023-01-27T06:27:38.637Z,7.15
2023-01-27T06:30:42.173Z,8.05
2023-01-27T06:33:44.952Z,5.47
2023-01-27T06:36:48.615Z,7.40
2023-01-27T06:39:51.333Z,3.78
2023-01-27T06:42:54.806Z,5.28
2023-01-27T06:46:00.066Z,7.22
2023-01-27T06:49:03.036Z,5.85
2023-01-27T06:52:05.905Z,6.35
2023-01-27T06:55:09.086Z,6.12
2023-01-27T06:58:13.180Z,8.00
2023-01-27T07:01:16.427Z,5.25
2023-01-27T07:04:19.380Z,4.85
2023-01-27T07:07:22.320Z,5.55
2023-01-27T07:10:25.698Z,5.87
2023-01-27T07:13:28.692Z,7.22
2023-01-27T07:16:31.334Z,7.12
2023-01-27T07:19:35.224Z,5.43
2023-01-27T07:22:38.691Z,8.30
2023-01-27T07:25:42.389Z,5.65
2023-01-27T07:28:45.440Z,7.00
2023-01-27T07:31:48.376Z,7.10
2023-01-27T07:34:50.963Z,5.72
2023-01-27T07:37:53.790Z,5.95
2023-01-27T07:40:58.081Z,6.93
2023-01-27T07:44:01.096Z,8.38
2023-01-27T07:47:03.910Z,6.10
2023-01-27T07:50:07.976Z,9.43
2023-01-27T07:53:14.686Z,7.17
2023-01-27T07:56:17.722Z,5.37
2023-01-27T07:59:20.476Z,5.62
2023-01-27T08:02:24.275Z,7.45
2023-01-27T08:05:28.544Z,6.90
2023-01-27T08:08:31.138Z,5.10
2023-01-27T08:11:34.474Z,11.45
2023-01-27T08:14:37.095Z,7.05
2023-01-27T08:17:40.186Z,6.50
2023-01-27T08:20:45.694Z,9.27
2023-01-27T08:23:49.126Z,6.25
2023-01-27T08:26:51.736Z,8.55
2023-01-27T08:29:54.686Z,8.65
2023-01-27T08:32:57.375Z,7.80
2023-01-27T08:36:11.376Z,5.95
2023-01-27T08:39:14.121Z,4.30
2023-01-27T08:42:16.955Z,8.85
2023-01-27T08:45:19.601Z,6.07
2023-01-27T08:48:22.780Z,8.10
2023-01-27T08:51:25.645Z,8.18
2023-01-27T08:54:28.522Z,8.65
2023-01-27T08:57:32.451Z,6.22
2023-01-27T09:00:35.592Z,6.78
2023-01-27T09:03:38.356Z,5.65
2023-01-27T09:06:41.558Z,5.07
2023-01-27T09:09:47.767Z,5.82
2023-01-27T09:12:50.605Z,5.28
2023-01-27T09:15:53.932Z,5.97
2023-01-27T09:18:58.219Z,6.90
2023-01-27T09:22:00.788Z,4.82
2023-01-27T09:25:03.943Z,3.90
2023-01-27T09:28:09.940Z,4.87
2023-01-27T09:31:12.998Z,6.70
2023-01-27T09:34:17.775Z,5.50
2023-01-27T09:37:20.833Z,5.07
2023-01-27T09:40:58.798Z,4.22
2023-01-27T09:44:41.509Z,7.90
2023-01-27T09:47:56.166Z,3.87
2023-01-27T09:51:50.711Z,4.25
2023-01-27T09:55:01.952Z,2.62
2023-01-27T09:58:14.825Z,1.95
2023-01-27T10:01:20.447Z,3.30
2023-01-27T10:04:42.187Z,3.00
2023-01-27T10:08:03.591Z,2.80
2023-01-27T10:11:18.811Z,3.37
2023-01-27T10:14:34.345Z,5.80
2023-01-27T10:17:52.484Z,5.35
2023-01-27T10:21:09.380Z,2.97
2023-01-27T10:24:14.946Z,3.35
2023-01-27T10:27:22.455Z,5.65
2023-01-27T10:33:53.150Z,3.55
2023-01-27T10:37:34.677Z,2.17
2023-01-27T10:40:56.178Z,3.08
2023-01-27T10:44:29.858Z,4.15
2023-01-27T10:47:51.028Z,2.28
2023-01-27T10:51:03.516Z,1.80
2023-01-27T10:54:13.377Z,4.25
2023-01-27T10:57:38.443Z,3.25
2023-01-27T11:04:33.323Z,3.92
2023-01-27T11:07:47.209Z,2.45
2023-01-27T11:11:13.663Z,2.35
2023-01-27T11:14:25.005Z,6.50
2023-01-27T11:17:53.494Z,7.25
2023-01-27T11:21:00.273Z,5.53
2023-01-27T11:24:26.010Z,3.92
2023-01-27T11:27:45.540Z,4.10
2023-01-27T11:30:55.706Z,3.70
2023-01-27T11:34:06.775Z,3.05
2023-01-27T11:37:18.653Z,5.25
2023-01-27T11:40:27.577Z,2.83
2023-01-27T11:43:30.808Z,4.87
2023-01-27T11:46:35.517Z,3.80
2023-01-27T11:49:44.391Z,6.62
2023-01-27T11:52:50.952Z,3.20
2023-01-27T11:56:08.702Z,4.93
2023-01-27T11:59:19.020Z,3.47
2023-01-27T12:02:29.894Z,4.20
2023-01-27T12:05:41.375Z,7.72
2023-01-27T12:08:47.439Z,9.45
2023-01-27T12:12:11.293Z,7.80
2023-01-27T12:15:18.755Z,5.45
2023-01-27T12:18:23.681Z,6.57
2023-01-27T12:21:48.156Z,9.60
2023-01-27T12:24:57.521Z,2.97
2023-01-27T12:28:05.045Z,5.10
2023-01-27T12:31:14.978Z,7.57
2023-01-27T12:34:23.824Z,8.02
2023-01-27T12:37:31.877Z,6.25
2023-01-27T12:40:34.912Z,4.95
2023-01-27T12:44:10.038Z,7.22
2023-01-27T12:47:31.880Z,5.82
2023-01-27T12:50:40.263Z,4.57
2023-01-27T12:53:44.214Z,8.63
2023-01-27T12:56:48.083Z,6.87
2023-01-27T12:59:55.099Z,6.85
2023-01-27T13:03:05.943Z,5.75
2023-01-27T13:06:09.618Z,9.13
2023-01-27T13:09:35.308Z,5.78
2023-01-27T13:12:54.702Z,4.60
2023-01-27T13:16:23.352Z,6.00
2023-01-27T13:19:43.445Z,9.57
2023-01-27T13:22:59.473Z,5.60
2023-01-27T13:26:05.106Z,6.05
2023-01-27T13:29:13.601Z,8.02
2023-01-27T13:32:27.885Z,4.80
2023-01-27T13:35:48.327Z,5.62
2023-01-27T13:39:11.945Z,13.27
2023-01-27T13:42:26.314Z,5.07
2023-01-27T13:45:45.847Z,4.70
2023-01-27T13:48:59.129Z,5.70
2023-01-27T13:52:01.979Z,6.87
2023-01-27T13:55:07.503Z,4.30
2023-01-27T13:58:15.348Z,7.85
2023-01-27T14:01:21.307Z,5.18
2023-01-27T14:04:30.395Z,8.73
2023-01-27T14:07:43.926Z,5.62
2023-01-27T14:11:06.006Z,8.25
2023-01-27T14:14:28.245Z,4.85
2023-01-27T14:18:04.559Z,5.82
2023-01-27T14:21:40.495Z,6.78
2023-01-27T14:24:52.821Z,4.00
2023-01-27T14:28:32.208Z,8.23
2023-01-27T14:31:45.915Z,5.75
2023-01-27T14:35:05.700Z,7.82
2023-01-27T14:38:42.666Z,4.12
2023-01-27T14:41:54.143Z,5.80
2023-01-27T14:45:21.815Z,7.78
2023-01-27T14:48:36.699Z,4.20
2023-01-27T14:51:47.588Z,7.87
2023-01-27T14:55:31.593Z,5.80
2023-01-27T14:58:48.511Z,7.03
2023-01-27T15:02:06.458Z,6.97
2023-01-27T15:05:32.163Z,7.20
2023-01-27T15:08:46.682Z,7.95
2023-01-27T15:12:08.267Z,7.43
2023-01-27T15:15:29.217Z,6.95
2023-01-27T15:18:37.876Z,7.50
2023-01-27T15:25:04.446Z,3.72
2023-01-27T15:28:14.086Z,5.43
2023-01-27T15:31:17.771Z,6.43
2023-01-27T15:34:23.316Z,6.50
2023-01-27T15:37:30.150Z,5.30
2023-01-27T15:41:11.722Z,7.90
2023-01-27T15:44:27.720Z,6.55
2023-01-27T15:47:37.426Z,7.82
2023-01-27T15:51:03.079Z,4.97
2023-01-27T15:54:09.840Z,5.57
2023-01-27T15:57:33.278Z,5.47
2023-01-27T16:00:42.771Z,7.75
2023-01-27T16:03:48.859Z,7.30
2023-01-27T16:07:03.935Z,7.15
2023-01-27T16:10:15.997Z,3.62
2023-01-27T16:13:25.676Z,6.53
2023-01-27T16:16:34.426Z,8.93
2023-01-27T16:19:44.375Z,7.95
2023-01-27T16:22:58.012Z,7.22
2023-01-27T16:26:30.373Z,8.57
2023-01-27T16:29:33.751Z,5.07
2023-01-27T16:32:46.303Z,4.70
2023-01-27T16:35:53.931Z,8.07
2023-01-27T16:39:03.252Z,6.70
2023-01-27T16:42:06.912Z,6.32
2023-01-27T16:45:21.630Z,4.75
2023-01-27T16:48:30.671Z,10.45
2023-01-27T16:51:35.044Z,5.60
2023-01-27T16:54:42.809Z,6.80
2023-01-27T16:57:45.756Z,7.15
2023-01-27T17:00:52.885Z,7.32
2023-01-27T17:04:07.768Z,9.15
2023-01-27T17:07:13.484Z,10.32
2023-01-27T17:10:29.075Z,7.35
2023-01-27T17:13:46.238Z,7.40
2023-01-27T17:16:51.192Z,8.05
2023-01-27T17:20:06.070Z,12.93
2023-01-27T17:23:21.601Z,11.75
2023-01-27T17:26:26.212Z,15.07
2023-01-27T17:29:38.330Z,12.40
2023-01-27T17:32:46.465Z,12.52
2023-01-27T17:35:52.558Z,11.33
2023-01-27T17:38:57.365Z,10.15
2023-01-27T17:42:01.521Z,10.40
2023-01-27T17:45:28.854Z,10.35
2023-01-27T17:49:04.473Z,13.95
2023-01-27T17:52:15.420Z,8.60
2023-01-27T17:55:21.848Z,10.70
2023-01-27T17:58:27.081Z,15.43
2023-01-27T18:01:30.357Z,15.07
2023-01-27T18:04:39.477Z,10.00
2023-01-27T18:07:42.321Z,8.43
2023-01-27T18:10:46.145Z,8.70
2023-01-27T18:13:53.829Z,12.13
2023-01-27T18:17:24.847Z,12.95
2023-01-27T18:20:34.130Z,8.55
2023-01-27T18:23:48.115Z,12.13
2023-01-27T18:26:50.796Z,9.88
2023-01-27T18:30:00.151Z,10.23
2023-01-27T18:33:06.007Z,11.23
2023-01-27T18:36:21.030Z,17.42
2023-01-27T18:39:32.744Z,14.35
2023-01-27T18:42:36.113Z,13.00
2023-01-27T18:45:38.696Z,14.07
2023-01-27T18:48:41.743Z,15.52
2023-01-27T18:51:44.433Z,15.43
2023-01-27T18:54:48.386Z,13.93
2023-01-27T18:57:56.755Z,11.40
2023-01-27T19:01:00.885Z,10.18
2023-01-27T19:04:03.768Z,11.57
2023-01-27T19:07:18.175Z,10.50
2023-01-27T19:10:28.167Z,12.07
2023-01-27T19:13:31.156Z,13.45
2023-01-27T19:16:34.003Z,15.07
2023-01-27T19:19:37.089Z,11.10
2023-01-27T19:22:39.787Z,12.35
2023-01-27T19:25:45.624Z,12.02
2023-01-27T19:28:54.849Z,14.40
2023-01-27T19:31:58.496Z,11.45
2023-01-27T19:35:01.475Z,12.82
2023-01-27T19:38:04.781Z,9.43
2023-01-27T19:41:09.829Z,12.82
2023-01-27T19:44:14.741Z,10.30
2023-01-27T19:47:17.539Z,13.93
2023-01-27T19:50:25.070Z,14.95
2023-01-27T19:53:28.084Z,15.23
2023-01-27T19:56:33.978Z,15.98
2023-01-27T19:59:38.141Z,10.35
2023-01-27T20:02:42.042Z,16.30
2023-01-27T20:05:45.891Z,11.77
2023-01-27T20:08:55.009Z,13.18
2023-01-27T20:11:58.388Z,12.60
2023-01-27T20:15:01.290Z,9.55
2023-01-27T20:18:04.845Z,14.45
2023-01-27T20:21:12.225Z,13.10
2023-01-27T20:24:19.495Z,12.70
2023-01-27T20:27:22.515Z,17.70
2023-01-27T20:30:34.549Z,11.40
2023-01-27T20:33:37.415Z,15.15
2023-01-27T20:36:40.327Z,11.15
2023-01-27T20:39:43.770Z,12.18
2023-01-27T20:42:47.844Z,10.38
2023-01-27T20:45:51.395Z,11.88
2023-01-27T20:48:54.516Z,11.75
2023-01-27T20:51:58.292Z,16.30
2023-01-27T20:55:01.405Z,14.50
2023-01-27T20:58:04.116Z,13.62
2023-01-27T21:01:33.805Z,11.43
2023-01-27T21:04:36.561Z,13.05
2023-01-27T21:07:39.468Z,13.45
2023-01-27T21:10:42.331Z,11.90
2023-01-27T21:13:45.676Z,9.85
2023-01-27T21:16:48.298Z,13.18
2023-01-27T21:19:51.297Z,11.88
2023-01-27T21:22:54.054Z,16.55
2023-01-27T21:25:57.152Z,14.35
2023-01-27T21:29:00.030Z,14.13
2023-01-27T21:32:03.198Z,13.07
2023-01-27T21:35:06.254Z,11.07
2023-01-27T21:38:09.198Z,11.95
2023-01-27T21:41:35.383Z,9.13
2023-01-27T21:44:56.872Z,8.77
2023-01-27T21:47:59.560Z,12.45
2023-01-27T21:51:02.727Z,13.60
2023-01-27T21:54:05.810Z,14.80
2023-01-27T21:57:08.645Z,10.77
2023-01-27T22:00:13.502Z,14.20
2023-01-27T22:03:17.497Z,9.07
2023-01-27T22:06:20.150Z,11.77
2023-01-27T22:09:23.023Z,13.93
2023-01-27T22:12:25.908Z,13.68
2023-01-27T22:15:28.911Z,10.07
2023-01-27T22:18:31.610Z,13.20
2023-01-27T22:21:34.443Z,14.90
2023-01-27T22:24:37.162Z,15.70
2023-01-27T22:27:43.656Z,14.10
2023-01-27T22:30:46.631Z,13.30
2023-01-27T22:33:49.457Z,15.15
2023-01-27T22:36:52.241Z,15.35
2023-01-27T22:39:55.111Z,14.63
2023-01-27T22:42:57.838Z,14.23
2023-01-27T22:46:02.430Z,13.82
2023-01-27T22:49:05.178Z,13.70
2023-01-27T22:52:08.062Z,15.50
2023-01-27T22:55:13.119Z,11.80
2023-01-27T22:58:16.423Z,12.60
2023-01-27T23:01:19.389Z,18.83
2023-01-27T23:04:22.628Z,16.45
2023-01-27T23:07:25.881Z,16.30
2023-01-27T23:10:29.405Z,15.07
2023-01-27T23:13:33.231Z,14.60
2023-01-27T23:16:36.086Z,16.58
2023-01-27T23:19:38.840Z,14.60
2023-01-27T23:22:42.072Z,14.60
2023-01-27T23:25:46.206Z,13.10
2023-01-27T23:28:49.186Z,14.90
2023-01-27T23:31:52.365Z,13.95
2023-01-27T23:34:55.400Z,18.95
2023-01-27T23:37:57.937Z,14.93
2023-01-27T23:41:02.746Z,13.55
2023-01-27T23:44:05.457Z,16.90
2023-01-27T23:47:08.392Z,12.23
2023-01-27T23:50:11.740Z,20.10
2023-01-27T23:53:15.933Z,12.10
2023-01-27T23:56:20.561Z,12.20
2023-01-27T23:59:23.901Z,18.20
